Главная страница
METAR-TAF:

METAR-TAF

Аэропорты :

Абадан, Иран

широта: 30-22N, долгота: 048-15E, высота над уровнем моря: 3 м

Текущие метеонаблюдения

Эта сводка был подготовлена 10 минут назад, в 11:00 UTC
Ветер 16 Узел от западно-северо-западный
Температура 46°C
Влажность 13%
Давление 996 hPa
Видимость 10 км и более
Нет облачности ниже 1500 м, и нет кучево-дождевой облачности

METAR: OIAA 221100Z 30016KT CAVOK 46/11 Q0996

Время: 15:40 (11:10 UTC)

Прогноз

Эта сводка был подготовлена 5 часа и 40 минут назад, в 05:30 UTC
Прогноз действительный с 22-го 06 UTC до 23-го 12 UTC
Ветер 8 Узел от северо-западный
Видимость: 7000 м
временами
С 22-го 09 UTC до 22-го 18 UTC
Ветер 18 Узел от северо-западный

TAF: OIAA 220530Z 2206/2312 31008KT 7000 NSC TEMPO 2209/2218 31018KT

Метеонаблюдения и прогнозы для более 4000 аэропортов (сводки METAR и TAF).

Имеющиеся станции представлены на карте желтыми и красными точками.

Чтобы увидеть название станции, наведите на нее мышь.

Затем щелкните, чтобы увидеть метеонаблюдения и метеопрогнозы.

Управление картой: чтобы увеличить масштаб, щелкните зеленые кнопки с черным крестиком; чтобы уменьшить масштаб, щелкните зеленую кнопку с тире; для просмотра соседних карт щелкайте зеленые стрелки.


METAR-TAF: